< < Back
Terminal Aerodrome Forecast


Current Version              Previous Versions:   1  2  3  4  5  6  7  8  9  

Terminal Aerodrome Forecast

656
FTUS42 KTAE 041720
TAFTLH
TAF
KTLH 041720Z 0418/0518 24010KT P6SM VCTS SCT050CB
      TEMPO 0418/0422 VRB15G25KT TSRA BKN025CB
     FM050000 23003KT P6SM SCT250
     FM051500 24005KT P6SM VCTS SCT030CB=

Latest METAR

234
SAUS80 KWBC 050200
MTRTLH
METAR KTLH 050153Z 00000KT 10SM FEW120 SCT250 24/22 A3012 RMK AO2 SLP196
T02440217 $


USA.gov is the U.S. government's official web portal to all federal, state and local government web resources and services.